EmailTwitter


Surface observations / Quebec / CYUL (71627)

Regions: Quebec | Canada | USA | Europe | France | UK | Elsewhere
Station
Display
Info & Location for CYUL (71627) | Help decoding METAR

Weather Conditions observed on 2020/08/07 at 01:00 UTC at MONTREAL INTL A, QB (CYUL)

Sky conditions: few clouds.

Temperature: 20.0 Celsius.

Dewpoint: 13.0 Celsius.

Relative Humidity: 64%

Winds: West-southwest at 9 km/h or 5 knots.

Mean Sea level Pressure: 101.94 kilopascals.

Altimeter Setting (QNH): 101.93 kilopascals or 30.10 inches of mercury.

Horizontal visibility: 15.00 statute miles or 24.00 kilometers.

Coded METAR:

CYUL 070100Z 25005KT 15SM FEW250 20/13 A3010 RMK CI1 CI TR SLP194 DENSITY ALT

600FT=